createdAt,value
2022-09-13T00:01:33.231Z,17.70
2022-09-13T00:04:04.323Z,17.60
2022-09-13T00:06:33.310Z,17.80
2022-09-13T00:09:03.386Z,17.60
2022-09-13T00:11:33.604Z,17.50
2022-09-13T00:14:04.791Z,17.40
2022-09-13T00:16:35.950Z,17.40
2022-09-13T00:19:06.622Z,17.50
2022-09-13T00:21:39.977Z,17.70
2022-09-13T00:24:10.015Z,17.50
2022-09-13T00:26:38.222Z,17.60
2022-09-13T00:29:06.956Z,17.40
2022-09-13T00:31:37.917Z,17.60
2022-09-13T00:34:06.327Z,17.70
2022-09-13T00:36:34.707Z,17.70
2022-09-13T00:39:06.488Z,17.60
2022-09-13T00:41:39.722Z,17.40
2022-09-13T00:44:50.552Z,17.50
2022-09-13T00:47:23.238Z,17.40
2022-09-13T00:49:55.267Z,17.50
2022-09-13T00:52:28.905Z,17.40
2022-09-13T00:55:04.060Z,17.50
2022-09-13T00:57:36.656Z,17.50
2022-09-13T01:00:13.553Z,17.60
2022-09-13T01:02:45.614Z,17.30
2022-09-13T01:05:19.320Z,17.40
2022-09-13T01:07:48.482Z,17.60
2022-09-13T01:10:17.338Z,17.70
2022-09-13T01:12:53.372Z,17.70
2022-09-13T01:15:23.296Z,17.60
2022-09-13T01:17:56.587Z,17.50
2022-09-13T01:20:37.749Z,17.50
2022-09-13T01:23:35.741Z,17.60
2022-09-13T01:26:37.394Z,17.80
2022-09-13T01:29:48.648Z,17.60
2022-09-13T01:32:30.257Z,17.70
2022-09-13T01:35:11.630Z,17.60
2022-09-13T01:37:52.470Z,17.40
2022-09-13T01:40:33.160Z,17.10
2022-09-13T01:43:20.620Z,16.90
2022-09-13T01:45:58.032Z,16.80
2022-09-13T01:48:37.118Z,16.90
2022-09-13T01:51:12.866Z,16.80
2022-09-13T01:53:50.916Z,16.80
2022-09-13T01:56:24.820Z,16.80
2022-09-13T01:59:04.476Z,16.70
2022-09-13T02:01:37.749Z,16.90
2022-09-13T02:04:15.507Z,17.00
2022-09-13T02:06:51.220Z,17.10
2022-09-13T02:09:24.685Z,17.00
2022-09-13T02:12:00.415Z,16.80
2022-09-13T02:14:35.262Z,16.70
2022-09-13T02:17:10.675Z,16.70
2022-09-13T02:19:49.910Z,16.80
2022-09-13T02:22:22.377Z,16.70
2022-09-13T02:25:02.768Z,16.80
2022-09-13T02:27:35.139Z,16.80
2022-09-13T02:30:07.627Z,16.60
2022-09-13T02:32:42.324Z,16.60
2022-09-13T02:35:17.462Z,16.60
2022-09-13T02:37:50.778Z,16.80
2022-09-13T02:40:27.345Z,16.80
2022-09-13T02:43:06.765Z,16.70
2022-09-13T02:45:42.800Z,16.60
2022-09-13T02:48:16.505Z,16.50
2022-09-13T02:50:51.989Z,16.50
2022-09-13T02:53:29.104Z,16.40
2022-09-13T02:56:14.225Z,16.50
2022-09-13T02:58:47.225Z,16.80
2022-09-13T03:01:16.318Z,17.00
2022-09-13T03:03:47.164Z,17.00
2022-09-13T03:06:24.729Z,17.30
2022-09-13T03:08:53.673Z,17.40
2022-09-13T03:11:37.188Z,17.40
2022-09-13T03:14:21.333Z,17.20
2022-09-13T03:17:06.511Z,17.20
2022-09-13T03:20:05.578Z,17.30
2022-09-13T03:23:11.741Z,17.30
2022-09-13T03:25:55.287Z,17.30
2022-09-13T03:28:36.010Z,17.00
2022-09-13T03:31:09.850Z,16.90
2022-09-13T03:33:48.247Z,17.20
2022-09-13T03:36:22.914Z,17.10
2022-09-13T03:39:01.719Z,16.70
2022-09-13T03:41:35.913Z,16.30
2022-09-13T03:44:08.109Z,16.00
2022-09-13T03:46:39.875Z,15.90
2022-09-13T03:49:10.348Z,15.90
2022-09-13T03:51:42.242Z,15.90
2022-09-13T03:54:18.417Z,15.90
2022-09-13T03:57:10.073Z,15.90
2022-09-13T03:59:40.753Z,16.20
2022-09-13T04:02:12.295Z,16.40
2022-09-13T04:04:44.922Z,16.60
2022-09-13T04:07:15.641Z,16.80
2022-09-13T04:09:46.297Z,17.00
2022-09-13T04:12:15.353Z,16.90
2022-09-13T04:14:45.095Z,17.10
2022-09-13T04:17:14.472Z,17.40
2022-09-13T04:19:47.312Z,17.10
2022-09-13T04:22:19.131Z,16.80
2022-09-13T04:25:02.036Z,16.90
2022-09-13T04:27:31.164Z,16.90
2022-09-13T04:30:04.197Z,16.90
2022-09-13T04:32:38.176Z,17.00
2022-09-13T04:35:22.009Z,17.00
2022-09-13T04:37:53.033Z,17.00
2022-09-13T04:40:26.314Z,16.70
2022-09-13T04:42:59.767Z,16.40
2022-09-13T04:45:28.525Z,16.30
2022-09-13T04:48:00.732Z,16.20
2022-09-13T04:50:35.354Z,16.20
2022-09-13T04:53:10.198Z,16.30
2022-09-13T04:55:46.043Z,16.40
2022-09-13T04:58:23.173Z,16.30
2022-09-13T05:00:56.910Z,16.40
2022-09-13T05:03:28.146Z,16.70
2022-09-13T05:05:56.480Z,16.60
2022-09-13T05:08:24.701Z,16.60
2022-09-13T05:11:11.703Z,16.50
2022-09-13T05:13:40.388Z,16.50
2022-09-13T05:16:15.699Z,16.50
2022-09-13T05:18:53.110Z,16.40
2022-09-13T05:21:23.633Z,16.40
2022-09-13T05:23:58.526Z,16.50
2022-09-13T05:26:37.143Z,16.60
2022-09-13T05:29:08.927Z,16.60
2022-09-13T05:31:45.552Z,16.60
2022-09-13T05:34:18.840Z,16.50
2022-09-13T05:36:54.037Z,16.70
2022-09-13T05:40:00.360Z,16.70
2022-09-13T05:42:19.210Z,16.80
2022-09-13T05:44:52.267Z,16.90
2022-09-13T05:47:20.930Z,17.00
2022-09-13T05:50:09.406Z,16.80
2022-09-13T05:52:47.836Z,17.00
2022-09-13T05:55:19.624Z,17.10
2022-09-13T05:57:59.850Z,17.10
2022-09-13T06:00:36.599Z,17.30
2022-09-13T06:03:14.947Z,17.00
2022-09-13T06:05:43.430Z,16.80
2022-09-13T06:08:25.832Z,16.60
2022-09-13T06:11:08.757Z,16.70
2022-09-13T06:14:01.543Z,16.90
2022-09-13T06:16:35.015Z,16.70
2022-09-13T06:19:11.552Z,17.00
2022-09-13T06:21:49.494Z,17.30
2022-09-13T06:24:40.796Z,17.20
2022-09-13T06:27:16.560Z,17.10
2022-09-13T06:29:49.273Z,17.20
2022-09-13T06:32:25.704Z,17.40
2022-09-13T06:35:01.200Z,17.60
2022-09-13T06:37:30.327Z,18.00
2022-09-13T06:40:02.323Z,18.20
2022-09-13T06:42:35.244Z,18.40
2022-09-13T06:45:13.901Z,18.50
2022-09-13T06:47:47.735Z,18.80
2022-09-13T06:50:19.706Z,18.90
2022-09-13T06:52:48.693Z,19.00
2022-09-13T06:55:17.416Z,19.30
2022-09-13T06:57:55.890Z,19.30
2022-09-13T07:00:42.098Z,19.40
2022-09-13T07:03:18.762Z,19.70
2022-09-13T07:05:54.255Z,19.70
2022-09-13T07:08:23.174Z,19.90
2022-09-13T07:10:52.979Z,19.90
2022-09-13T07:13:26.518Z,19.90
2022-09-13T07:16:13.861Z,19.90
2022-09-13T07:18:42.447Z,19.80
2022-09-13T07:21:13.301Z,19.70
2022-09-13T07:23:44.362Z,19.80
2022-09-13T07:26:15.918Z,19.70
2022-09-13T07:28:50.282Z,19.70
2022-09-13T07:31:25.412Z,19.70
2022-09-13T07:33:56.528Z,19.70
2022-09-13T07:36:30.380Z,19.70
2022-09-13T07:39:15.007Z,19.80
2022-09-13T07:41:46.458Z,19.90
2022-09-13T07:44:15.162Z,20.10
2022-09-13T07:46:45.330Z,20.10
2022-09-13T07:49:20.389Z,20.20
2022-09-13T07:51:51.496Z,20.20
2022-09-13T07:54:25.054Z,20.40
2022-09-13T07:57:18.143Z,20.40
2022-09-13T07:59:46.393Z,20.40
2022-09-13T08:02:21.444Z,20.40
2022-09-13T08:04:53.653Z,20.50
2022-09-13T08:07:22.134Z,20.60
2022-09-13T08:09:57.259Z,20.80
2022-09-13T08:12:26.049Z,20.70
2022-09-13T08:14:54.417Z,20.90
2022-09-13T08:17:24.389Z,21.00
2022-09-13T08:19:54.926Z,21.10
2022-09-13T08:22:32.769Z,21.30
2022-09-13T08:25:03.434Z,21.40
2022-09-13T08:27:34.609Z,21.60
2022-09-13T08:30:03.208Z,21.80
2022-09-13T08:32:33.239Z,21.80
2022-09-13T08:35:04.998Z,22.00
2022-09-13T08:37:37.670Z,22.20
2022-09-13T08:40:07.119Z,22.30
2022-09-13T08:42:47.592Z,22.40
2022-09-13T08:45:16.380Z,22.60
2022-09-13T08:47:52.006Z,22.60
2022-09-13T08:50:23.124Z,22.70
2022-09-13T08:53:10.934Z,22.80
2022-09-13T08:55:50.122Z,22.70
2022-09-13T08:58:38.099Z,22.70
2022-09-13T09:01:13.367Z,22.70
2022-09-13T09:03:49.908Z,22.80
2022-09-13T09:06:24.398Z,23.00
2022-09-13T09:09:00.111Z,23.40
2022-09-13T09:11:36.910Z,23.50
2022-09-13T09:14:16.114Z,23.80
2022-09-13T09:16:53.134Z,23.80
2022-09-13T09:19:34.373Z,24.00
2022-09-13T09:22:07.562Z,24.00
2022-09-13T09:24:44.540Z,23.90
2022-09-13T09:27:19.747Z,24.00
2022-09-13T09:29:54.606Z,24.10
2022-09-13T09:32:39.875Z,24.30
2022-09-13T09:35:17.694Z,24.40
2022-09-13T09:38:02.959Z,24.30
2022-09-13T09:40:38.996Z,24.20
2022-09-13T09:43:27.216Z,24.30
2022-09-13T09:45:58.692Z,24.20
2022-09-13T09:48:34.800Z,24.20
2022-09-13T09:51:10.378Z,24.10
2022-09-13T09:53:43.575Z,24.40
2022-09-13T09:56:22.908Z,24.60
2022-09-13T09:58:53.186Z,24.90
2022-09-13T10:01:26.966Z,24.70
2022-09-13T10:04:04.270Z,24.70
2022-09-13T10:06:34.046Z,24.80
2022-09-13T10:09:07.153Z,24.90
2022-09-13T10:11:45.941Z,24.90
2022-09-13T10:14:42.893Z,24.90
2022-09-13T10:17:24.776Z,25.20
2022-09-13T10:20:00.230Z,25.50
2022-09-13T10:22:38.807Z,25.60
2022-09-13T10:25:16.875Z,25.60
2022-09-13T10:27:52.218Z,25.90
2022-09-13T10:30:34.286Z,25.90
2022-09-13T10:33:04.080Z,25.70
2022-09-13T10:35:32.839Z,25.50
2022-09-13T10:38:02.673Z,25.40
2022-09-13T10:40:34.044Z,25.20
2022-09-13T10:43:07.159Z,25.10
2022-09-13T10:45:36.206Z,25.20
2022-09-13T10:48:20.618Z,25.10
2022-09-13T10:51:06.749Z,25.10
2022-09-13T10:53:39.356Z,25.00
2022-09-13T10:56:20.650Z,24.80
2022-09-13T10:58:52.559Z,24.60
2022-09-13T11:01:40.604Z,24.70
2022-09-13T11:05:01.288Z,24.90
2022-09-13T11:07:59.597Z,25.00
2022-09-13T11:10:40.628Z,25.10
2022-09-13T11:13:19.976Z,25.10
2022-09-13T11:15:56.825Z,25.30
2022-09-13T11:18:46.222Z,25.40
2022-09-13T11:21:36.881Z,25.50
2022-09-13T11:24:21.024Z,25.60
2022-09-13T11:27:04.636Z,25.70
2022-09-13T11:29:51.659Z,25.90
2022-09-13T11:32:33.355Z,26.00
2022-09-13T11:35:20.523Z,26.00
2022-09-13T11:37:59.773Z,26.10
2022-09-13T11:40:40.782Z,26.20
2022-09-13T11:43:44.229Z,26.30
2022-09-13T11:46:25.499Z,26.50
2022-09-13T11:49:25.466Z,26.50
2022-09-13T11:52:04.444Z,26.50
2022-09-13T11:54:48.470Z,26.50
2022-09-13T11:57:20.795Z,26.50
2022-09-13T11:59:55.873Z,26.60
2022-09-13T12:02:30.876Z,26.80
2022-09-13T12:05:21.666Z,26.90
2022-09-13T12:07:54.266Z,27.00
2022-09-13T12:10:26.318Z,27.00
2022-09-13T12:12:57.358Z,27.10
2022-09-13T12:15:37.968Z,27.30
2022-09-13T12:18:15.742Z,27.50
2022-09-13T12:20:49.111Z,27.40
2022-09-13T12:23:22.595Z,27.40
2022-09-13T12:25:56.424Z,27.50
2022-09-13T12:28:29.598Z,27.40
2022-09-13T12:31:03.556Z,27.30
2022-09-13T12:33:32.171Z,27.30
2022-09-13T12:36:41.517Z,27.30
2022-09-13T12:39:32.402Z,27.40
2022-09-13T12:42:34.254Z,27.50
2022-09-13T12:45:17.516Z,27.60
2022-09-13T12:48:12.097Z,27.70
2022-09-13T12:50:57.528Z,27.80
2022-09-13T12:53:56.105Z,27.80
2022-09-13T12:56:36.243Z,27.80
2022-09-13T12:59:36.083Z,27.80
2022-09-13T13:02:26.966Z,27.90
2022-09-13T13:05:01.109Z,28.00
2022-09-13T13:07:40.981Z,28.00
2022-09-13T13:10:27.069Z,28.00
2022-09-13T13:12:55.583Z,28.10
2022-09-13T13:15:56.912Z,28.10
2022-09-13T13:18:30.860Z,28.10
2022-09-13T13:21:30.615Z,28.10
2022-09-13T13:24:38.811Z,28.10
2022-09-13T13:27:39.122Z,28.20
2022-09-13T13:30:36.017Z,28.30
2022-09-13T13:33:07.664Z,28.30
2022-09-13T13:35:36.157Z,28.40
2022-09-13T13:38:52.523Z,28.40
2022-09-13T15:19:46.057Z,28.90
2022-09-13T15:29:43.949Z,28.80
2022-09-13T15:49:34.793Z,28.40
2022-09-13T15:52:19.904Z,28.30
2022-09-13T15:55:16.266Z,28.10
2022-09-13T15:58:31.247Z,28.10
2022-09-13T16:01:07.942Z,28.20
2022-09-13T16:03:36.450Z,28.00
2022-09-13T16:06:04.958Z,28.00
2022-09-13T16:08:33.554Z,27.90
2022-09-13T16:11:08.786Z,27.90
2022-09-13T16:14:29.473Z,27.90
2022-09-13T16:17:17.285Z,27.90
2022-09-13T16:20:23.902Z,27.90
2022-09-13T16:22:52.409Z,27.90
2022-09-13T16:25:21.050Z,27.80
2022-09-13T16:27:55.384Z,27.70
2022-09-13T16:30:27.990Z,27.70
2022-09-13T16:33:00.751Z,27.60
2022-09-13T16:35:33.359Z,27.70
2022-09-13T16:38:01.888Z,27.70
2022-09-13T16:40:41.157Z,27.70
2022-09-13T16:43:10.772Z,27.60
2022-09-13T16:45:45.445Z,27.50
2022-09-13T16:48:26.886Z,27.50
2022-09-13T16:51:13.069Z,27.40
2022-09-13T16:53:46.282Z,27.40
2022-09-13T16:56:18.017Z,27.40
2022-09-13T16:58:52.660Z,27.40
2022-09-13T17:01:32.512Z,27.30
2022-09-13T17:04:03.955Z,27.40
2022-09-13T17:06:33.916Z,27.30
2022-09-13T17:09:05.571Z,27.30
2022-09-13T17:11:38.923Z,27.30
2022-09-13T17:14:18.601Z,27.10
2022-09-13T17:16:52.227Z,27.10
2022-09-13T17:19:31.435Z,27.10
2022-09-13T17:22:10.027Z,27.10
2022-09-13T17:24:40.358Z,27.10
2022-09-13T17:27:12.414Z,27.10
2022-09-13T17:29:40.992Z,27.10
2022-09-13T17:32:10.070Z,27.10
2022-09-13T17:34:39.953Z,27.00
2022-09-13T17:37:08.726Z,26.90
2022-09-13T17:39:39.044Z,26.90
2022-09-13T17:42:09.636Z,26.90
2022-09-13T17:44:38.102Z,26.90
2022-09-13T17:47:08.178Z,27.00
2022-09-13T17:49:36.844Z,26.80
2022-09-13T17:52:08.237Z,26.80
2022-09-13T17:54:36.836Z,26.70
2022-09-13T17:57:05.423Z,26.50
2022-09-13T17:59:34.434Z,26.40
2022-09-13T18:02:05.367Z,26.30
2022-09-13T18:04:34.381Z,26.10
2022-09-13T18:07:04.955Z,26.10
2022-09-13T18:09:35.016Z,26.00
2022-09-13T18:12:04.034Z,26.00
2022-09-13T18:14:34.602Z,26.00
2022-09-13T18:17:03.256Z,25.90
2022-09-13T18:19:45.854Z,25.90
2022-09-13T18:22:22.070Z,25.80
2022-09-13T18:24:58.290Z,25.70
2022-09-13T18:27:27.974Z,25.60
2022-09-13T18:29:59.702Z,25.50
2022-09-13T18:32:31.209Z,25.50
2022-09-13T18:34:59.742Z,25.40
2022-09-13T18:37:28.187Z,25.50
2022-09-13T18:39:58.334Z,25.50
2022-09-13T18:42:30.247Z,25.40
2022-09-13T18:45:07.294Z,25.30
2022-09-13T18:47:35.959Z,25.20
2022-09-13T18:50:08.199Z,25.00
2022-09-13T18:52:43.375Z,25.00
2022-09-13T19:27:57.207Z,24.80
2022-09-13T19:51:22.161Z,24.50
2022-09-13T19:55:02.340Z,24.50
2022-09-13T19:58:08.546Z,24.40
2022-09-13T20:22:32.349Z,24.20
2022-09-13T20:26:07.021Z,23.80
2022-09-13T20:29:49.409Z,23.70
2022-09-13T20:33:07.632Z,23.50
2022-09-13T20:40:47.305Z,23.10
2022-09-13T20:46:14.436Z,23.40
2022-09-13T20:52:20.288Z,23.50
2022-09-13T20:59:39.633Z,23.50
2022-09-13T21:02:55.682Z,23.70
2022-09-13T21:05:53.564Z,23.80
2022-09-13T21:09:23.901Z,23.70
2022-09-13T21:12:00.896Z,23.70
2022-09-13T21:14:37.714Z,23.70
2022-09-13T21:17:06.875Z,23.50
2022-09-13T21:26:57.241Z,23.30
2022-09-13T21:33:30.826Z,23.50
2022-09-13T21:36:41.877Z,23.50
2022-09-13T21:39:42.263Z,23.60
2022-09-13T21:42:36.433Z,23.60
2022-09-13T21:45:20.733Z,23.70
2022-09-13T21:47:57.863Z,23.60
2022-09-13T21:50:41.697Z,23.60
2022-09-13T21:54:30.757Z,23.60
2022-09-13T21:57:50.394Z,23.70
2022-09-13T22:01:22.914Z,23.50
2022-09-13T22:04:09.274Z,23.60
2022-09-13T22:06:51.282Z,23.60
2022-09-13T22:09:29.861Z,23.50
2022-09-13T22:15:42.185Z,23.50
2022-09-13T22:18:26.832Z,23.50
2022-09-13T22:21:28.800Z,23.40
2022-09-13T22:24:15.042Z,23.40
2022-09-13T22:27:18.067Z,23.40
2022-09-13T22:30:12.911Z,23.40
2022-09-13T22:33:12.061Z,23.30
2022-09-13T22:36:14.133Z,23.10
2022-09-13T22:42:24.055Z,23.10
2022-09-13T22:45:40.389Z,22.90
2022-09-13T22:48:32.230Z,22.80
2022-09-13T22:52:03.410Z,23.00
2022-09-13T22:54:44.580Z,23.20
2022-09-13T22:57:38.290Z,23.20
2022-09-13T23:04:15.843Z,23.00
2022-09-13T23:11:35.277Z,23.00
2022-09-13T23:18:09.495Z,22.90
2022-09-13T23:27:34.590Z,23.00
2022-09-13T23:37:20.183Z,22.90
2022-09-13T23:43:28.190Z,22.70
2022-09-13T23:50:18.255Z,22.50
2022-09-13T23:53:12.542Z,22.20
2022-09-13T23:55:57.536Z,22.00
2022-09-13T23:58:35.440Z,22.00
